createdAt,value
2023-10-03T00:00:00.832Z,16.8
2023-10-03T00:02:00.834Z,16.9
2023-10-03T00:04:01.105Z,17.1
2023-10-03T00:06:00.667Z,17.4
2023-10-03T00:08:02.325Z,17.4
2023-10-03T00:10:00.780Z,17.1
2023-10-03T00:12:00.657Z,16.8
2023-10-03T00:14:00.983Z,17.0
2023-10-03T00:16:01.048Z,17.1
2023-10-03T00:18:01.282Z,17.2
2023-10-03T00:20:00.666Z,17.6
2023-10-03T00:22:00.610Z,17.3
2023-10-03T00:24:01.073Z,17.3
2023-10-03T00:26:00.754Z,17.9
2023-10-03T00:28:00.845Z,17.9
2023-10-03T00:30:00.919Z,18.4
2023-10-03T00:32:01.118Z,19.1
2023-10-03T00:34:00.769Z,20.0
2023-10-03T00:36:00.679Z,20.8
2023-10-03T00:38:00.632Z,21.4
2023-10-03T00:40:00.884Z,21.9
2023-10-03T00:42:01.145Z,22.3
2023-10-03T00:44:00.959Z,22.7
2023-10-03T00:46:00.644Z,22.9
2023-10-03T00:48:02.945Z,23.3
2023-10-03T00:50:00.892Z,23.3
2023-10-03T00:52:01.168Z,23.4
2023-10-03T00:54:00.999Z,23.4
2023-10-03T00:56:02.003Z,23.3
2023-10-03T00:58:03.121Z,23.5
2023-10-03T01:00:01.072Z,23.6
2023-10-03T01:02:00.734Z,23.5
2023-10-03T01:04:00.982Z,23.7
2023-10-03T01:06:02.542Z,23.6
2023-10-03T01:08:00.820Z,23.6
2023-10-03T01:10:01.066Z,23.5
2023-10-03T01:12:00.625Z,23.7
2023-10-03T01:14:00.837Z,23.6
2023-10-03T01:16:01.047Z,23.6
2023-10-03T01:18:01.150Z,23.5
2023-10-03T01:20:00.753Z,23.7
2023-10-03T01:22:01.011Z,23.5
2023-10-03T01:24:00.693Z,23.7
2023-10-03T01:26:00.648Z,23.6
2023-10-03T01:28:00.866Z,24.1
2023-10-03T01:30:01.223Z,24.0
2023-10-03T01:32:00.674Z,24.0
2023-10-03T01:34:00.978Z,24.0
2023-10-03T01:36:01.073Z,23.9
2023-10-03T01:38:01.228Z,24.2
2023-10-03T01:40:01.063Z,23.9
2023-10-03T01:42:00.639Z,24.2
2023-10-03T01:44:00.661Z,24.1
2023-10-03T01:46:01.025Z,24.0
2023-10-03T01:48:01.334Z,24.1
2023-10-03T01:50:00.734Z,24.0
2023-10-03T01:52:00.971Z,24.1
2023-10-03T01:54:00.819Z,24.1
2023-10-03T01:56:00.615Z,24.2
2023-10-03T01:58:00.862Z,23.8
2023-10-03T02:00:01.394Z,23.8
2023-10-03T02:02:00.688Z,23.6
2023-10-03T02:04:01.249Z,23.4
2023-10-03T02:06:01.103Z,23.4
2023-10-03T02:08:01.407Z,23.4
2023-10-03T02:10:00.664Z,23.4
2023-10-03T02:12:01.083Z,23.3
2023-10-03T02:14:00.663Z,23.4
2023-10-03T02:16:01.071Z,23.3
2023-10-03T02:18:00.893Z,23.6
2023-10-03T02:20:02.162Z,23.5
2023-10-03T02:22:00.692Z,23.3
2023-10-03T02:24:01.101Z,23.3
2023-10-03T02:26:06.516Z,23.2
2023-10-03T02:28:00.936Z,23.2
2023-10-03T02:30:00.622Z,23.2
2023-10-03T02:32:00.877Z,23.1
2023-10-03T02:34:01.140Z,23.3
2023-10-03T02:36:01.367Z,23.2
2023-10-03T02:38:00.765Z,23.2
2023-10-03T02:40:00.959Z,23.4
2023-10-03T02:42:00.903Z,23.4
2023-10-03T02:44:00.650Z,23.5
2023-10-03T02:46:01.574Z,23.5
2023-10-03T02:48:01.089Z,23.4
2023-10-03T02:50:00.617Z,23.6
2023-10-03T02:52:01.079Z,23.7
2023-10-03T02:54:00.781Z,23.6
2023-10-03T02:56:01.047Z,23.5
2023-10-03T02:58:00.812Z,23.5
2023-10-03T03:00:00.851Z,23.7
2023-10-03T03:02:00.625Z,23.5
2023-10-03T03:04:01.142Z,23.5
2023-10-03T03:06:01.789Z,23.7
2023-10-03T03:08:01.558Z,23.8
2023-10-03T03:10:00.850Z,23.8
2023-10-03T03:12:00.635Z,23.8
2023-10-03T03:14:01.415Z,23.6
2023-10-03T03:16:01.512Z,23.6
2023-10-03T03:18:00.719Z,23.8
2023-10-03T03:20:02.717Z,23.6
2023-10-03T03:22:00.623Z,23.5
2023-10-03T03:24:00.635Z,23.4
2023-10-03T03:26:01.195Z,23.5
2023-10-03T03:28:01.676Z,23.7
2023-10-03T03:30:00.892Z,23.6
2023-10-03T03:32:01.144Z,23.7
2023-10-03T03:34:00.669Z,23.4
2023-10-03T03:36:00.769Z,23.3
2023-10-03T03:38:00.899Z,23.3
2023-10-03T03:40:01.059Z,23.4
2023-10-03T03:42:00.834Z,23.3
2023-10-03T03:44:00.743Z,23.4
2023-10-03T03:46:00.769Z,23.4
2023-10-03T03:48:00.885Z,23.4
2023-10-03T03:50:00.987Z,23.3
2023-10-03T03:52:00.905Z,23.4
2023-10-03T03:54:01.065Z,23.6
2023-10-03T03:56:00.859Z,23.5
2023-10-03T03:58:01.365Z,23.4
2023-10-03T04:00:00.740Z,23.5
2023-10-03T04:02:01.201Z,23.6
2023-10-03T04:04:01.063Z,23.8
2023-10-03T04:06:00.740Z,23.8
2023-10-03T04:08:00.742Z,23.7
2023-10-03T04:10:02.378Z,23.7
2023-10-03T04:12:00.908Z,23.8
2023-10-03T04:14:00.905Z,23.8
2023-10-03T04:16:00.923Z,23.8
2023-10-03T04:18:00.790Z,23.9
2023-10-03T04:20:00.657Z,23.6
2023-10-03T04:22:00.806Z,23.5
2023-10-03T04:24:00.952Z,23.4
2023-10-03T04:26:00.985Z,23.6
2023-10-03T04:28:01.490Z,23.2
2023-10-03T04:30:00.828Z,23.1
2023-10-03T04:32:00.620Z,23.3
2023-10-03T04:34:00.789Z,23.2
2023-10-03T04:36:01.298Z,23.4
2023-10-03T04:38:01.205Z,23.0
2023-10-03T04:40:01.019Z,23.0
2023-10-03T04:42:00.637Z,22.8
2023-10-03T04:44:00.665Z,22.9
2023-10-03T04:46:00.948Z,22.8
2023-10-03T04:48:00.988Z,22.7
2023-10-03T04:50:00.969Z,22.9
2023-10-03T04:52:00.643Z,22.7
2023-10-03T04:54:00.833Z,22.7
2023-10-03T04:56:00.672Z,22.5
2023-10-03T04:58:00.804Z,22.4
2023-10-03T05:00:00.775Z,22.4
2023-10-03T05:02:00.772Z,22.5
2023-10-03T05:04:00.936Z,22.7
2023-10-03T05:06:00.644Z,22.6
2023-10-03T05:08:00.734Z,22.6
2023-10-03T05:10:01.049Z,22.5
2023-10-03T05:12:00.843Z,22.6
2023-10-03T05:14:01.032Z,22.7
2023-10-03T05:16:01.019Z,22.5
2023-10-03T05:18:00.773Z,22.5
2023-10-03T05:20:00.685Z,22.5
2023-10-03T05:22:00.686Z,22.7
2023-10-03T05:24:00.994Z,22.6
2023-10-03T05:26:00.926Z,22.9
2023-10-03T05:28:00.904Z,22.9
2023-10-03T05:30:00.650Z,22.9
2023-10-03T05:32:00.646Z,22.5
2023-10-03T05:34:00.813Z,22.5
2023-10-03T05:36:00.632Z,22.6
2023-10-03T05:38:05.673Z,22.7
2023-10-03T05:40:01.549Z,22.8
2023-10-03T05:42:00.841Z,22.4
2023-10-03T05:44:00.796Z,22.0
2023-10-03T05:46:00.645Z,22.1
2023-10-03T05:48:01.073Z,22.0
2023-10-03T05:50:01.092Z,21.3
2023-10-03T05:52:01.018Z,21.5
2023-10-03T05:54:01.674Z,21.2
2023-10-03T05:56:00.804Z,21.1
2023-10-03T05:58:03.456Z,21.5
2023-10-03T06:00:00.757Z,22.0
2023-10-03T06:02:00.946Z,21.7
2023-10-03T06:04:04.482Z,22.4
2023-10-03T06:06:00.701Z,22.2
2023-10-03T06:08:00.649Z,21.9
2023-10-03T06:10:00.997Z,21.9
2023-10-03T06:12:00.841Z,21.9
2023-10-03T06:14:00.957Z,22.2
2023-10-03T06:16:01.010Z,22.4
2023-10-03T06:18:00.744Z,22.4
2023-10-03T06:20:00.789Z,22.5
2023-10-03T06:22:01.049Z,22.4
2023-10-03T06:24:00.895Z,22.4
2023-10-03T06:26:00.790Z,22.3
2023-10-03T06:28:00.894Z,22.5
2023-10-03T06:30:00.960Z,22.4
2023-10-03T06:32:00.614Z,22.6
2023-10-03T06:34:00.628Z,22.6
2023-10-03T06:36:00.955Z,22.5
2023-10-03T06:38:00.794Z,22.6
2023-10-03T06:40:01.321Z,22.6
2023-10-03T06:42:00.684Z,22.5
2023-10-03T06:44:00.751Z,22.8
2023-10-03T06:46:00.657Z,22.5
2023-10-03T06:48:01.044Z,22.3
2023-10-03T06:50:00.668Z,22.5
2023-10-03T06:52:00.988Z,22.4
2023-10-03T06:54:00.718Z,22.3
2023-10-03T06:56:00.858Z,22.3
2023-10-03T06:58:00.729Z,22.4
2023-10-03T07:00:01.149Z,22.0
2023-10-03T07:02:00.934Z,22.2
2023-10-03T07:04:00.926Z,22.2
2023-10-03T07:06:01.087Z,22.1
2023-10-03T07:08:00.657Z,22.4
2023-10-03T07:10:01.017Z,22.2
2023-10-03T07:12:00.654Z,22.4
2023-10-03T07:14:00.985Z,22.0
2023-10-03T07:16:00.957Z,22.1
2023-10-03T07:18:01.876Z,22.1
2023-10-03T07:20:00.754Z,22.2
2023-10-03T07:22:00.908Z,22.1
2023-10-03T07:24:00.705Z,22.2
2023-10-03T07:26:00.977Z,22.1
2023-10-03T07:28:01.169Z,22.5
2023-10-03T07:30:00.827Z,22.4
2023-10-03T07:32:01.021Z,22.0
2023-10-03T07:34:00.864Z,22.3
2023-10-03T07:36:03.452Z,22.3
2023-10-03T07:38:00.621Z,22.2
2023-10-03T07:40:00.805Z,22.2
2023-10-03T07:42:01.060Z,22.5
2023-10-03T07:44:00.750Z,22.5
2023-10-03T07:46:00.710Z,22.5
2023-10-03T07:48:00.720Z,22.5
2023-10-03T07:50:00.738Z,22.2
2023-10-03T07:52:00.821Z,22.2
2023-10-03T07:54:00.749Z,22.2
2023-10-03T07:56:00.645Z,22.3
2023-10-03T07:58:03.976Z,22.4
2023-10-03T08:00:00.822Z,22.4
2023-10-03T08:02:01.770Z,22.3
2023-10-03T08:04:01.167Z,22.4
2023-10-03T08:06:00.725Z,22.3
2023-10-03T08:08:00.660Z,22.0
2023-10-03T08:10:00.777Z,22.2
2023-10-03T08:12:00.638Z,22.2
2023-10-03T08:14:02.380Z,22.4
2023-10-03T08:16:01.042Z,22.6
2023-10-03T08:18:00.902Z,22.5
2023-10-03T08:20:00.654Z,22.6
2023-10-03T08:22:00.600Z,22.9
2023-10-03T08:24:03.150Z,22.5
2023-10-03T08:26:00.625Z,22.6
2023-10-03T08:28:01.006Z,23.1
2023-10-03T08:30:00.934Z,22.6
2023-10-03T08:32:00.942Z,22.5
2023-10-03T08:34:00.742Z,22.8
2023-10-03T08:36:00.767Z,22.7
2023-10-03T08:38:02.543Z,23.1
2023-10-03T08:40:00.906Z,23.5
2023-10-03T08:42:04.342Z,22.9
2023-10-03T08:44:03.164Z,22.8
2023-10-03T08:46:02.057Z,23.1
2023-10-03T08:48:03.501Z,22.8
2023-10-03T08:50:03.526Z,23.1
2023-10-03T08:52:01.174Z,22.9
2023-10-03T08:54:01.586Z,23.1
2023-10-03T08:56:00.809Z,23.0
2023-10-03T08:58:03.307Z,23.3
2023-10-03T09:00:00.706Z,23.4
2023-10-03T09:02:03.196Z,23.0
2023-10-03T09:04:01.602Z,22.8
2023-10-03T09:06:01.083Z,23.1
2023-10-03T09:08:00.802Z,23.2
2023-10-03T09:10:00.932Z,23.0
2023-10-03T09:12:01.699Z,23.2
2023-10-03T09:14:00.880Z,23.5
2023-10-03T09:16:01.483Z,23.4
2023-10-03T09:18:00.859Z,23.3
2023-10-03T09:20:00.782Z,23.6
2023-10-03T09:22:00.633Z,24.3
2023-10-03T09:24:02.863Z,24.1
2023-10-03T09:26:00.657Z,24.2
2023-10-03T09:28:04.630Z,23.4
2023-10-03T09:30:07.016Z,23.3
2023-10-03T09:32:03.453Z,23.5
2023-10-03T09:34:00.811Z,23.6
2023-10-03T09:36:00.658Z,23.8
2023-10-03T09:38:01.226Z,24.4
2023-10-03T09:40:00.857Z,24.0
2023-10-03T09:42:02.074Z,24.1
2023-10-03T09:44:01.380Z,24.4
2023-10-03T09:46:01.077Z,24.4
2023-10-03T09:48:00.680Z,24.6
2023-10-03T09:50:01.205Z,24.6
2023-10-03T09:52:03.945Z,24.5
2023-10-03T09:54:01.501Z,24.5
2023-10-03T09:56:00.953Z,24.7
2023-10-03T09:58:01.283Z,24.9
2023-10-03T10:00:00.900Z,24.8
2023-10-03T10:02:01.211Z,24.9
2023-10-03T10:04:02.894Z,25.0
2023-10-03T10:06:15.967Z,24.9
2023-10-03T10:08:08.282Z,24.9
2023-10-03T10:10:04.413Z,24.9
2023-10-03T10:12:12.151Z,25.3
2023-10-03T10:14:02.091Z,25.4
2023-10-03T10:16:04.162Z,25.3
2023-10-03T10:18:01.177Z,25.0
2023-10-03T10:20:08.483Z,25.0
2023-10-03T10:22:01.533Z,24.8
2023-10-03T10:24:19.917Z,24.7
2023-10-03T10:26:21.877Z,24.6
2023-10-03T10:28:02.398Z,24.7
2023-10-03T10:30:06.042Z,25.2
2023-10-03T10:32:15.342Z,25.4
2023-10-03T10:34:21.861Z,25.0
2023-10-03T10:36:00.898Z,25.5
2023-10-03T10:38:00.841Z,25.5
2023-10-03T10:40:08.148Z,25.4
2023-10-03T10:42:08.789Z,25.7
2023-10-03T10:44:04.696Z,25.6
2023-10-03T10:46:21.909Z,25.6
2023-10-03T10:48:01.170Z,25.8
2023-10-03T10:50:18.114Z,26.0
2023-10-03T10:52:01.653Z,26.3
2023-10-03T10:54:01.121Z,26.4
2023-10-03T10:56:00.898Z,26.5
2023-10-03T10:58:02.911Z,26.6
2023-10-03T11:00:16.693Z,26.5
2023-10-03T11:02:00.851Z,26.8
2023-10-03T11:04:01.215Z,26.9
2023-10-03T11:06:01.337Z,26.6
2023-10-03T11:08:00.667Z,26.4
2023-10-03T11:10:18.808Z,26.8
2023-10-03T11:12:00.828Z,26.8
2023-10-03T11:14:01.237Z,27.6
2023-10-03T11:16:00.637Z,27.5
2023-10-03T11:18:01.141Z,26.4
2023-10-03T11:20:01.055Z,26.5
2023-10-03T11:22:00.890Z,26.7
2023-10-03T11:24:12.599Z,27.0
2023-10-03T11:26:00.703Z,26.5
2023-10-03T11:28:05.087Z,27.1
2023-10-03T11:30:14.450Z,26.6
2023-10-03T11:32:00.683Z,26.9
2023-10-03T11:34:00.682Z,26.5
2023-10-03T11:36:01.029Z,26.5
2023-10-03T11:38:06.074Z,26.0
2023-10-03T11:40:06.164Z,25.9
2023-10-03T11:42:06.070Z,25.6
2023-10-03T11:44:01.050Z,25.8
2023-10-03T11:46:00.870Z,26.0
2023-10-03T11:48:03.151Z,26.2
2023-10-03T11:50:01.360Z,26.8
2023-10-03T11:52:00.622Z,27.0
2023-10-03T11:54:00.804Z,27.0
2023-10-03T11:56:00.657Z,27.3
2023-10-03T11:58:00.694Z,26.9
2023-10-03T12:00:00.669Z,26.5
2023-10-03T12:02:00.707Z,26.7
2023-10-03T12:04:00.901Z,25.8
2023-10-03T12:06:00.983Z,25.8
2023-10-03T12:08:01.001Z,25.6
2023-10-03T12:10:00.770Z,25.6
2023-10-03T12:12:00.685Z,25.5
2023-10-03T12:14:01.459Z,25.1
2023-10-03T12:16:00.967Z,25.1
2023-10-03T12:18:01.269Z,25.1
2023-10-03T12:20:00.648Z,24.5
2023-10-03T12:22:00.653Z,24.3
2023-10-03T12:24:00.721Z,24.7
2023-10-03T12:26:05.807Z,24.4
2023-10-03T12:28:00.637Z,24.2
2023-10-03T12:30:01.002Z,23.5
2023-10-03T12:32:00.662Z,23.7
2023-10-03T12:34:00.657Z,22.8
2023-10-03T12:36:01.077Z,22.9
2023-10-03T12:38:01.112Z,22.3
2023-10-03T12:40:01.137Z,22.2
2023-10-03T12:42:00.900Z,22.0
2023-10-03T12:44:00.627Z,21.9
2023-10-03T12:46:00.818Z,21.7
2023-10-03T12:48:00.843Z,21.7
2023-10-03T12:50:01.408Z,21.8
2023-10-03T12:52:00.852Z,21.6
2023-10-03T12:54:01.016Z,21.3
2023-10-03T12:56:00.664Z,21.8
2023-10-03T12:58:00.898Z,21.6
2023-10-03T13:00:00.832Z,21.4
2023-10-03T13:02:00.765Z,21.3
2023-10-03T13:04:02.238Z,21.3
2023-10-03T13:06:01.096Z,21.4
2023-10-03T13:08:00.989Z,20.8
2023-10-03T13:10:00.683Z,20.5
2023-10-03T13:12:00.780Z,20.9
2023-10-03T13:14:00.797Z,20.6
2023-10-03T13:16:00.765Z,20.5
2023-10-03T13:18:01.242Z,20.5
2023-10-03T13:20:00.753Z,20.5
2023-10-03T13:22:00.845Z,20.3
2023-10-03T13:24:00.725Z,20.2
2023-10-03T13:26:00.689Z,20.1
2023-10-03T13:28:01.022Z,20.3
2023-10-03T13:30:04.062Z,20.4
2023-10-03T13:32:00.745Z,20.3
2023-10-03T13:34:00.760Z,20.4
2023-10-03T13:36:01.191Z,20.6
2023-10-03T13:38:01.228Z,20.6
2023-10-03T13:40:00.661Z,20.6
2023-10-03T13:42:00.937Z,20.6
2023-10-03T13:44:02.640Z,20.7
2023-10-03T13:46:00.654Z,21.1
2023-10-03T13:48:00.847Z,20.9
2023-10-03T13:50:00.965Z,21.0
2023-10-03T13:52:00.978Z,20.7
2023-10-03T13:54:02.154Z,20.7
2023-10-03T13:56:00.677Z,20.9
2023-10-03T13:58:00.708Z,20.8
2023-10-03T14:00:01.634Z,20.7
2023-10-03T14:02:00.764Z,20.5
2023-10-03T14:04:01.239Z,20.3
2023-10-03T14:06:00.976Z,20.0
2023-10-03T14:08:01.186Z,20.1
2023-10-03T14:10:01.377Z,19.8
2023-10-03T14:12:00.720Z,19.8
2023-10-03T14:14:00.909Z,19.2
2023-10-03T14:16:00.851Z,18.8
2023-10-03T14:18:01.281Z,18.6
2023-10-03T14:20:00.810Z,18.4
2023-10-03T14:22:01.282Z,18.2
2023-10-03T14:24:00.706Z,18.2
2023-10-03T14:26:00.632Z,18.2
2023-10-03T14:28:00.640Z,18.2
2023-10-03T14:30:00.789Z,18.4
2023-10-03T14:32:00.653Z,18.4
2023-10-03T14:34:00.759Z,18.4
2023-10-03T14:36:01.081Z,18.2
2023-10-03T14:38:00.663Z,18.0
2023-10-03T14:40:00.930Z,18.2
2023-10-03T14:42:01.017Z,18.1
2023-10-03T14:44:01.119Z,18.2
2023-10-03T14:46:00.800Z,18.4
2023-10-03T14:48:00.801Z,18.4
2023-10-03T14:50:00.958Z,18.3
2023-10-03T14:52:00.646Z,18.2
2023-10-03T14:54:01.481Z,18.0
2023-10-03T14:56:04.082Z,18.1
2023-10-03T14:58:01.037Z,18.0
2023-10-03T15:00:00.697Z,17.8
2023-10-03T15:02:00.780Z,17.7
2023-10-03T15:04:01.124Z,17.9
2023-10-03T15:06:02.653Z,18.1
2023-10-03T15:08:01.108Z,18.1
2023-10-03T15:10:02.017Z,18.0
2023-10-03T15:12:00.689Z,17.9
2023-10-03T15:14:00.856Z,17.8
2023-10-03T15:16:01.172Z,18.0
2023-10-03T15:18:00.941Z,18.3
2023-10-03T15:20:01.484Z,18.2
2023-10-03T15:22:02.147Z,17.9
2023-10-03T15:24:02.417Z,18.2
2023-10-03T15:26:01.522Z,18.0
2023-10-03T15:28:01.164Z,17.9
2023-10-03T15:30:01.097Z,18.3
2023-10-03T15:32:01.265Z,18.0
2023-10-03T15:34:01.147Z,18.1
2023-10-03T15:36:00.828Z,18.3
2023-10-03T15:38:05.237Z,18.1
2023-10-03T15:40:01.333Z,18.1
2023-10-03T15:42:01.377Z,18.0
2023-10-03T15:44:01.243Z,18.0
2023-10-03T15:46:01.396Z,18.4
2023-10-03T15:48:01.291Z,17.8
2023-10-03T15:50:00.674Z,18.1
2023-10-03T15:52:00.647Z,18.0
2023-10-03T15:54:00.882Z,18.1
2023-10-03T15:56:01.303Z,17.9
2023-10-03T15:58:01.581Z,18.0
2023-10-03T16:00:01.038Z,18.0
2023-10-03T16:02:00.648Z,18.3
2023-10-03T16:04:00.936Z,18.1
2023-10-03T16:06:00.934Z,18.4
2023-10-03T16:08:01.001Z,18.5
2023-10-03T16:10:01.060Z,18.6
2023-10-03T16:12:00.638Z,18.3
2023-10-03T16:14:00.667Z,18.5
2023-10-03T16:16:01.423Z,18.2
2023-10-03T16:18:01.034Z,18.5
2023-10-03T16:20:01.703Z,17.9
2023-10-03T16:22:01.003Z,18.1
2023-10-03T16:24:01.358Z,18.3
2023-10-03T16:26:00.646Z,18.5
2023-10-03T16:28:00.617Z,18.4
2023-10-03T16:30:01.008Z,18.0
2023-10-03T16:32:01.497Z,18.4
2023-10-03T16:34:01.035Z,17.9
2023-10-03T16:36:00.896Z,18.0
2023-10-03T16:38:01.249Z,18.3
2023-10-03T16:40:00.726Z,17.9
2023-10-03T16:42:00.969Z,17.9
2023-10-03T16:44:00.705Z,18.1
2023-10-03T16:46:00.844Z,18.0
2023-10-03T16:48:00.889Z,17.6
2023-10-03T16:50:01.039Z,18.1
2023-10-03T16:52:00.703Z,18.1
2023-10-03T16:54:00.676Z,18.1
2023-10-03T16:56:01.234Z,18.0
2023-10-03T16:58:04.054Z,18.1
2023-10-03T17:00:01.261Z,18.0
2023-10-03T17:02:00.738Z,17.9
2023-10-03T17:04:00.936Z,17.7
2023-10-03T17:06:01.444Z,17.9
2023-10-03T17:08:01.265Z,17.8
2023-10-03T17:10:01.028Z,17.6
2023-10-03T17:12:00.713Z,17.8
2023-10-03T17:14:00.647Z,17.5
2023-10-03T17:16:00.665Z,17.7
2023-10-03T17:18:00.793Z,17.9
2023-10-03T17:20:00.958Z,17.6
2023-10-03T17:22:01.108Z,17.7
2023-10-03T17:24:00.679Z,17.6
2023-10-03T17:26:00.676Z,17.8
2023-10-03T17:28:01.667Z,17.8
2023-10-03T17:30:03.264Z,18.0
2023-10-03T17:32:00.900Z,17.9
2023-10-03T17:34:00.921Z,17.9
2023-10-03T17:36:00.662Z,18.0
2023-10-03T17:38:00.930Z,17.5
2023-10-03T17:40:00.777Z,17.6
2023-10-03T17:42:00.849Z,17.7
2023-10-03T17:44:00.770Z,17.6
2023-10-03T17:46:02.584Z,17.9
2023-10-03T17:48:00.786Z,17.6
2023-10-03T17:50:00.769Z,17.5
2023-10-03T17:52:00.611Z,17.6
2023-10-03T17:54:00.712Z,17.4
2023-10-03T17:56:01.115Z,17.6
2023-10-03T17:58:00.864Z,17.2
2023-10-03T18:00:06.854Z,17.1
2023-10-03T18:02:00.617Z,16.9
2023-10-03T18:04:00.811Z,16.7
2023-10-03T18:06:00.681Z,16.9
2023-10-03T18:08:01.076Z,16.7
2023-10-03T18:10:00.614Z,16.8
2023-10-03T18:12:00.883Z,16.9
2023-10-03T18:14:00.691Z,16.5
2023-10-03T18:16:00.693Z,16.4
2023-10-03T18:18:00.827Z,16.4
2023-10-03T18:20:01.078Z,16.4
2023-10-03T18:22:00.618Z,16.5
2023-10-03T18:24:00.843Z,16.2
2023-10-03T18:26:00.613Z,16.5
2023-10-03T18:28:00.644Z,16.4
2023-10-03T18:30:01.013Z,16.2
2023-10-03T18:32:00.901Z,16.1
2023-10-03T18:34:00.866Z,16.3
2023-10-03T18:36:00.927Z,16.1
2023-10-03T18:38:00.727Z,16.3
2023-10-03T18:40:00.642Z,16.2
2023-10-03T18:42:00.684Z,16.5
2023-10-03T18:44:01.233Z,16.2
2023-10-03T18:46:05.895Z,16.0
2023-10-03T18:48:02.433Z,15.9
2023-10-03T18:50:01.031Z,16.1
2023-10-03T18:52:00.695Z,16.1
2023-10-03T18:54:01.020Z,15.9
2023-10-03T18:56:00.934Z,16.3
2023-10-03T18:58:00.645Z,16.1
2023-10-03T19:00:00.988Z,15.8
2023-10-03T19:02:00.778Z,16.0
2023-10-03T19:04:00.801Z,16.1
2023-10-03T19:06:05.844Z,15.9
2023-10-03T19:08:01.004Z,15.6
2023-10-03T19:10:01.268Z,16.0
2023-10-03T19:12:01.132Z,16.1
2023-10-03T19:14:00.954Z,15.8
2023-10-03T19:16:00.888Z,15.8
2023-10-03T19:18:00.831Z,16.3
2023-10-03T19:20:01.395Z,16.2
2023-10-03T19:22:00.950Z,16.4
2023-10-03T19:24:00.655Z,15.8
2023-10-03T19:26:00.890Z,15.8
2023-10-03T19:28:00.649Z,16.2
2023-10-03T19:30:01.397Z,16.4
2023-10-03T19:32:01.136Z,16.0
2023-10-03T19:34:00.765Z,16.0
2023-10-03T19:36:00.796Z,15.8
2023-10-03T19:38:01.650Z,15.9
2023-10-03T19:40:00.780Z,16.2
2023-10-03T19:42:01.385Z,15.9
2023-10-03T19:44:01.123Z,15.8
2023-10-03T19:46:01.151Z,16.3
2023-10-03T19:48:01.484Z,16.5
2023-10-03T19:50:00.770Z,16.6
2023-10-03T19:52:00.764Z,16.7
2023-10-03T19:54:00.679Z,16.8
2023-10-03T19:56:01.277Z,16.6
2023-10-03T19:58:00.939Z,16.3
2023-10-03T20:00:00.843Z,16.3
2023-10-03T20:02:00.788Z,16.5
2023-10-03T20:04:00.997Z,16.7
2023-10-03T20:06:00.695Z,16.6
2023-10-03T20:08:00.790Z,16.6
2023-10-03T20:10:00.623Z,16.6
2023-10-03T20:12:00.697Z,16.4
2023-10-03T20:14:00.758Z,16.6
2023-10-03T20:16:01.204Z,16.4
2023-10-03T20:18:01.146Z,16.6
2023-10-03T20:20:00.929Z,16.7
2023-10-03T20:22:01.087Z,16.7
2023-10-03T20:24:01.195Z,16.9
2023-10-03T20:26:00.836Z,16.8
2023-10-03T20:28:00.849Z,16.7
2023-10-03T20:30:00.853Z,16.8
2023-10-03T20:32:00.992Z,16.8
2023-10-03T20:34:00.949Z,16.9
2023-10-03T20:36:00.660Z,16.8
2023-10-03T20:38:00.905Z,16.8
2023-10-03T20:40:01.174Z,16.8
2023-10-03T20:42:00.690Z,16.8
2023-10-03T20:44:01.030Z,16.6
2023-10-03T20:46:08.259Z,16.7
2023-10-03T20:48:00.827Z,16.7
2023-10-03T20:50:01.459Z,16.8
2023-10-03T20:52:01.249Z,16.9
2023-10-03T20:54:00.814Z,16.9
2023-10-03T20:56:00.909Z,16.9
2023-10-03T20:58:00.630Z,16.7
2023-10-03T21:00:00.867Z,16.0
2023-10-03T21:02:00.980Z,16.3
2023-10-03T21:04:00.775Z,16.4
2023-10-03T21:06:01.162Z,16.6
2023-10-03T21:08:01.095Z,16.5
2023-10-03T21:10:00.693Z,16.4
2023-10-03T21:12:01.040Z,16.4
2023-10-03T21:14:00.626Z,16.3
2023-10-03T21:16:02.914Z,16.2
2023-10-03T21:18:00.849Z,16.1
2023-10-03T21:20:01.195Z,15.9
2023-10-03T21:22:00.805Z,15.9
2023-10-03T21:24:00.706Z,15.8
2023-10-03T21:26:08.510Z,15.8
2023-10-03T21:28:00.708Z,15.8
2023-10-03T21:30:00.863Z,15.7
2023-10-03T21:32:00.980Z,15.6
2023-10-03T21:34:00.755Z,15.6
2023-10-03T21:36:01.171Z,15.6
2023-10-03T21:38:00.728Z,15.4
2023-10-03T21:40:01.233Z,15.3
2023-10-03T21:42:00.992Z,15.2
2023-10-03T21:44:01.261Z,15.2
2023-10-03T21:46:01.051Z,15.2
2023-10-03T21:48:00.899Z,15.5
2023-10-03T21:50:01.105Z,15.7
2023-10-03T21:52:00.679Z,15.8
2023-10-03T21:54:00.837Z,15.5
2023-10-03T21:56:01.385Z,15.2
2023-10-03T21:58:01.091Z,15.2
2023-10-03T22:00:00.999Z,15.0
2023-10-03T22:02:00.740Z,14.9
2023-10-03T22:04:00.788Z,14.8
2023-10-03T22:06:01.311Z,14.7
2023-10-03T22:08:00.702Z,14.6
2023-10-03T22:10:01.202Z,14.6
2023-10-03T22:12:00.699Z,14.5
2023-10-03T22:14:00.711Z,14.5
2023-10-03T22:16:00.692Z,14.5
2023-10-03T22:18:01.308Z,14.6
2023-10-03T22:20:00.988Z,14.6
2023-10-03T22:22:00.792Z,14.6
2023-10-03T22:24:00.702Z,14.5
2023-10-03T22:26:00.660Z,14.4
2023-10-03T22:28:00.836Z,14.3
2023-10-03T22:30:01.407Z,14.3
2023-10-03T22:32:00.957Z,14.3
2023-10-03T22:34:00.722Z,14.3
2023-10-03T22:36:00.886Z,14.3
2023-10-03T22:40:00.982Z,14.3
2023-10-03T22:42:00.943Z,14.3
2023-10-03T22:44:01.297Z,14.3
2023-10-03T22:46:00.610Z,14.1
2023-10-03T22:48:00.990Z,14.0
2023-10-03T22:50:01.018Z,13.9
2023-10-03T22:52:00.646Z,14.0
2023-10-03T22:54:01.031Z,14.1
2023-10-03T22:56:00.953Z,13.9
2023-10-03T22:58:00.690Z,14.0
2023-10-03T23:00:00.708Z,14.0
2023-10-03T23:02:00.929Z,14.1
2023-10-03T23:04:00.770Z,14.5
2023-10-03T23:06:01.090Z,14.4
2023-10-03T23:08:00.988Z,14.2
2023-10-03T23:10:00.787Z,14.4
2023-10-03T23:12:01.038Z,14.5
2023-10-03T23:14:00.653Z,14.5
2023-10-03T23:16:00.688Z,14.5
2023-10-03T23:18:01.009Z,14.5
2023-10-03T23:20:00.914Z,14.5
2023-10-03T23:22:00.610Z,14.5
2023-10-03T23:24:00.954Z,14.4
2023-10-03T23:26:00.767Z,14.4
2023-10-03T23:28:00.614Z,14.4
2023-10-03T23:30:01.034Z,14.3
2023-10-03T23:32:00.825Z,14.1
2023-10-03T23:34:00.865Z,14.0
2023-10-03T23:36:01.086Z,14.0
2023-10-03T23:38:00.789Z,14.2
2023-10-03T23:40:00.714Z,14.1
2023-10-03T23:42:00.661Z,14.3
2023-10-03T23:44:00.634Z,14.4
2023-10-03T23:46:04.751Z,14.6
2023-10-03T23:48:00.782Z,14.6
2023-10-03T23:50:00.803Z,14.6
2023-10-03T23:52:00.716Z,14.6
2023-10-03T23:54:00.728Z,14.8
2023-10-03T23:56:00.696Z,14.8
2023-10-03T23:58:01.205Z,14.9
